sensor_id;sensor_type;location;lat;lon;timestamp;pressure;altitude;pressure_sealevel;temperature;humidity
58534;BME280;44109;52.398;7.024;2023-05-10T00:00:41;100532.72;;;15.39;100.00
58534;BME280;44109;52.398;7.024;2023-05-10T00:03:09;100534.31;;;15.40;100.00
58534;BME280;44109;52.398;7.024;2023-05-10T00:05:36;100529.13;;;15.39;100.00
58534;BME280;44109;52.398;7.024;2023-05-10T00:08:04;100532.34;;;15.37;100.00
58534;BME280;44109;52.398;7.024;2023-05-10T00:10:32;100531.53;;;15.40;100.00
58534;BME280;44109;52.398;7.024;2023-05-10T00:12:59;100518.38;;;15.34;100.00
58534;BME280;44109;52.398;7.024;2023-05-10T00:15:28;100530.78;;;15.29;100.00
58534;BME280;44109;52.398;7.024;2023-05-10T00:17:56;100530.84;;;15.18;100.00
58534;BME280;44109;52.398;7.024;2023-05-10T00:20:24;100538.38;;;14.16;100.00
58534;BME280;44109;52.398;7.024;2023-05-10T00:22:52;100539.19;;;13.84;100.00
58534;BME280;44109;52.398;7.024;2023-05-10T00:25:19;100536.78;;;13.93;100.00
58534;BME280;44109;52.398;7.024;2023-05-10T00:27:48;100531.19;;;14.15;100.00
58534;BME280;44109;52.398;7.024;2023-05-10T00:30:15;100529.63;;;14.07;100.00
58534;BME280;44109;52.398;7.024;2023-05-10T00:32:45;100533.19;;;14.18;100.00
58534;BME280;44109;52.398;7.024;2023-05-10T00:35:14;100525.63;;;14.11;100.00
58534;BME280;44109;52.398;7.024;2023-05-10T00:37:41;100532.03;;;14.05;100.00
58534;BME280;44109;52.398;7.024;2023-05-10T00:40:10;100533.16;;;14.21;100.00
58534;BME280;44109;52.398;7.024;2023-05-10T00:42:38;100531.16;;;14.26;100.00
58534;BME280;44109;52.398;7.024;2023-05-10T00:45:06;100527.22;;;14.23;100.00
58534;BME280;44109;52.398;7.024;2023-05-10T00:47:34;100537.56;;;14.15;100.00
58534;BME280;44109;52.398;7.024;2023-05-10T00:50:05;100541.56;;;14.11;100.00
58534;BME280;44109;52.398;7.024;2023-05-10T00:52:33;100537.97;;;14.14;100.00
58534;BME280;44109;52.398;7.024;2023-05-10T00:55:01;100532.00;;;13.98;100.00
58534;BME280;44109;52.398;7.024;2023-05-10T00:57:30;100535.59;;;14.05;100.00
58534;BME280;44109;52.398;7.024;2023-05-10T00:59:57;100534.41;;;13.99;100.00
58534;BME280;44109;52.398;7.024;2023-05-10T01:02:26;100528.81;;;14.06;100.00
58534;BME280;44109;52.398;7.024;2023-05-10T01:04:54;100532.81;;;13.87;100.00
58534;BME280;44109;52.398;7.024;2023-05-10T01:07:23;100528.81;;;14.06;100.00
58534;BME280;44109;52.398;7.024;2023-05-10T01:09:51;100535.19;;;14.10;100.00
58534;BME280;44109;52.398;7.024;2023-05-10T01:12:19;100536.78;;;14.15;100.00
58534;BME280;44109;52.398;7.024;2023-05-10T01:14:47;100536.00;;;14.18;100.00
58534;BME280;44109;52.398;7.024;2023-05-10T01:17:15;100528.41;;;14.08;100.00
58534;BME280;44109;52.398;7.024;2023-05-10T01:19:43;100533.56;;;14.20;100.00
58534;BME280;44109;52.398;7.024;2023-05-10T01:22:30;100535.56;;;14.23;100.00
58534;BME280;44109;52.398;7.024;2023-05-10T01:25:32;100526.81;;;14.14;100.00
58534;BME280;44109;52.398;7.024;2023-05-10T01:28:39;100538.38;;;14.09;100.00
58534;BME280;44109;52.398;7.024;2023-05-10T01:31:33;100527.63;;;14.18;100.00
58534;BME280;44109;52.398;7.024;2023-05-10T01:34:21;100525.63;;;14.08;100.00
58534;BME280;44109;52.398;7.024;2023-05-10T01:36:58;100533.59;;;14.13;100.00
58534;BME280;44109;52.398;7.024;2023-05-10T01:39:44;100535.19;;;14.10;100.00
58534;BME280;44109;52.398;7.024;2023-05-10T01:42:17;100534.81;;;14.01;100.00
58534;BME280;44109;52.398;7.024;2023-05-10T01:44:55;100529.63;;;14.10;100.00
58534;BME280;44109;52.398;7.024;2023-05-10T01:47:34;100528.03;;;14.13;100.00
58534;BME280;44109;52.398;7.024;2023-05-10T01:50:10;100536.78;;;14.11;100.00
58534;BME280;44109;52.398;7.024;2023-05-10T01:52:44;100528.00;;;14.16;100.00
58534;BME280;44109;52.398;7.024;2023-05-10T01:55:20;100528.41;;;14.15;100.00
58534;BME280;44109;52.398;7.024;2023-05-10T01:57:54;100535.97;;;14.14;100.00
58534;BME280;44109;52.398;7.024;2023-05-10T02:00:29;100528.41;;;14.11;100.00
58534;BME280;44109;52.398;7.024;2023-05-10T02:03:00;100532.81;;;14.05;100.00
58534;BME280;44109;52.398;7.024;2023-05-10T02:05:32;100529.25;;;13.90;100.00
58534;BME280;44109;52.398;7.024;2023-05-10T02:08:05;100530.03;;;13.94;100.00
58534;BME280;44109;52.398;7.024;2023-05-10T02:10:35;100527.63;;;13.96;100.00
58534;BME280;44109;52.398;7.024;2023-05-10T02:13:03;100531.63;;;13.95;100.00
58534;BME280;44109;52.398;7.024;2023-05-10T02:15:34;100532.81;;;13.91;100.00
58534;BME280;44109;52.398;7.024;2023-05-10T02:18:06;100540.75;;;14.03;100.00
58534;BME280;44109;52.398;7.024;2023-05-10T02:20:37;100540.38;;;14.05;100.00
58534;BME280;44109;52.398;7.024;2023-05-10T02:23:07;100539.19;;;14.09;100.00
58534;BME280;44109;52.398;7.024;2023-05-10T02:25:37;100539.19;;;14.09;100.00
58534;BME280;44109;52.398;7.024;2023-05-10T02:28:07;100541.59;;;14.04;100.00
58534;BME280;44109;52.398;7.024;2023-05-10T02:30:37;100545.16;;;14.04;100.00
58534;BME280;44109;52.398;7.024;2023-05-10T02:33:07;100545.16;;;14.01;100.00
58534;BME280;44109;52.398;7.024;2023-05-10T02:35:36;100541.59;;;13.96;100.00
58534;BME280;44109;52.398;7.024;2023-05-10T02:38:06;100537.59;;;13.98;100.00
58534;BME280;44109;52.398;7.024;2023-05-10T02:40:36;100535.63;;;13.94;100.00
58534;BME280;44109;52.398;7.024;2023-05-10T02:43:06;100541.19;;;14.02;100.00
58534;BME280;44109;52.398;7.024;2023-05-10T02:45:40;100541.59;;;14.00;100.00
58534;BME280;44109;52.398;7.024;2023-05-10T02:48:11;100545.97;;;13.98;100.00
58534;BME280;44109;52.398;7.024;2023-05-10T02:50:43;100554.31;;;13.94;100.00
58534;BME280;44109;52.398;7.024;2023-05-10T02:53:15;100543.19;;;13.83;100.00
58534;BME280;44109;52.398;7.024;2023-05-10T02:55:52;100540.81;;;13.85;100.00
58534;BME280;44109;52.398;7.024;2023-05-10T02:58:24;100544.78;;;13.77;100.00
58534;BME280;44109;52.398;7.024;2023-05-10T03:00:52;100545.16;;;13.79;100.00
58534;BME280;44109;52.398;7.024;2023-05-10T03:03:21;100546.75;;;13.80;100.00
58534;BME280;44109;52.398;7.024;2023-05-10T03:05:49;100551.13;;;13.74;100.00
58534;BME280;44109;52.398;7.024;2023-05-10T03:08:16;100546.38;;;13.78;100.00
58534;BME280;44109;52.398;7.024;2023-05-10T03:10:59;100552.72;;;13.79;100.00
58534;BME280;44109;52.398;7.024;2023-05-10T03:13:49;100549.94;;;13.79;100.00
58534;BME280;44109;52.398;7.024;2023-05-10T03:16:33;100543.97;;;13.80;100.00
58534;BME280;44109;52.398;7.024;2023-05-10T03:19:15;100552.31;;;13.80;100.00
58534;BME280;44109;52.398;7.024;2023-05-10T03:21:50;100549.94;;;13.75;100.00
58534;BME280;44109;52.398;7.024;2023-05-10T03:24:21;100554.31;;;13.69;100.00
58534;BME280;44109;52.398;7.024;2023-05-10T03:26:56;100544.78;;;13.77;100.00
58534;BME280;44109;52.398;7.024;2023-05-10T03:29:29;100548.75;;;13.76;100.00
58534;BME280;44109;52.398;7.024;2023-05-10T03:31:58;100540.81;;;13.85;100.00
58534;BME280;44109;52.398;7.024;2023-05-10T03:34:29;100549.94;;;13.82;100.00
58534;BME280;44109;52.398;7.024;2023-05-10T03:36:58;100559.09;;;13.76;100.00
58534;BME280;44109;52.398;7.024;2023-05-10T03:39:25;100560.28;;;13.71;100.00
58534;BME280;44109;52.398;7.024;2023-05-10T03:41:53;100560.72;;;13.77;100.00
58534;BME280;44109;52.398;7.024;2023-05-10T03:44:21;100562.31;;;13.78;100.00
58534;BME280;44109;52.398;7.024;2023-05-10T03:46:48;100565.47;;;13.76;100.00
58534;BME280;44109;52.398;7.024;2023-05-10T03:49:16;100560.69;;;13.80;100.00
58534;BME280;44109;52.398;7.024;2023-05-10T03:51:45;100567.06;;;13.74;100.00
58534;BME280;44109;52.398;7.024;2023-05-10T03:54:12;100564.66;;;13.76;100.00
58534;BME280;44109;52.398;7.024;2023-05-10T03:56:40;100576.22;;;13.67;100.00
58534;BME280;44109;52.398;7.024;2023-05-10T03:59:08;100571.47;;;13.78;100.00
58534;BME280;44109;52.398;7.024;2023-05-10T04:01:35;100577.44;;;13.84;100.00
58534;BME280;44109;52.398;7.024;2023-05-10T04:04:03;100585.41;;;13.85;100.00
58534;BME280;44109;52.398;7.024;2023-05-10T04:06:31;100581.81;;;13.88;100.00
58534;BME280;44109;52.398;7.024;2023-05-10T04:09:00;100585.41;;;13.92;100.00
58534;BME280;44109;52.398;7.024;2023-05-10T04:11:30;100589.38;;;13.91;100.00
58534;BME280;44109;52.398;7.024;2023-05-10T04:13:57;100589.78;;;13.72;100.00
58534;BME280;44109;52.398;7.024;2023-05-10T04:16:25;100586.19;;;13.75;100.00
58534;BME280;44109;52.398;7.024;2023-05-10T04:18:53;100587.75;;;13.76;100.00
58534;BME280;44109;52.398;7.024;2023-05-10T04:21:20;100590.19;;;13.78;100.00
58534;BME280;44109;52.398;7.024;2023-05-10T04:23:48;100595.34;;;13.79;100.00
58534;BME280;44109;52.398;7.024;2023-05-10T04:26:17;100598.13;;;13.76;100.00
58534;BME280;44109;52.398;7.024;2023-05-10T04:28:44;100599.34;;;13.67;100.00
58534;BME280;44109;52.398;7.024;2023-05-10T04:31:12;100600.13;;;13.68;100.00
58534;BME280;44109;52.398;7.024;2023-05-10T04:33:40;100600.53;;;13.63;100.00
58534;BME280;44109;52.398;7.024;2023-05-10T04:36:08;100599.31;;;13.64;100.00
58534;BME280;44109;52.398;7.024;2023-05-10T04:38:36;100600.53;;;13.84;100.00
58534;BME280;44109;52.398;7.024;2023-05-10T04:41:04;100592.97;;;13.81;100.00
58534;BME280;44109;52.398;7.024;2023-05-10T04:43:34;100597.31;;;13.75;100.00
58534;BME280;44109;52.398;7.024;2023-05-10T04:46:02;100601.72;;;13.76;100.00
58534;BME280;44109;52.398;7.024;2023-05-10T04:48:30;100600.13;;;13.82;100.00
58534;BME280;44109;52.398;7.024;2023-05-10T04:50:58;100599.75;;;13.91;100.00
58534;BME280;44109;52.398;7.024;2023-05-10T04:53:26;100595.38;;;13.86;100.00
58534;BME280;44109;52.398;7.024;2023-05-10T04:55:54;100595.75;;;13.85;100.00
58534;BME280;44109;52.398;7.024;2023-05-10T04:58:21;100610.50;;;13.92;100.00
58534;BME280;44109;52.398;7.024;2023-05-10T05:00:50;100611.69;;;13.88;100.00
58534;BME280;44109;52.398;7.024;2023-05-10T05:03:18;100603.75;;;13.90;100.00
58534;BME280;44109;52.398;7.024;2023-05-10T05:05:45;100612.09;;;13.93;100.00
58534;BME280;44109;52.398;7.024;2023-05-10T05:08:13;100617.66;;;13.97;100.00
58534;BME280;44109;52.398;7.024;2023-05-10T05:10:41;100620.47;;;14.01;100.00
58534;BME280;44109;52.398;7.024;2023-05-10T05:13:09;100628.41;;;13.99;100.00
58534;BME280;44109;52.398;7.024;2023-05-10T05:15:36;100622.88;;;14.09;100.00
58534;BME280;44109;52.398;7.024;2023-05-10T05:18:05;100617.28;;;14.13;100.00
58534;BME280;44109;52.398;7.024;2023-05-10T05:20:33;100622.06;;;14.23;100.00
58534;BME280;44109;52.398;7.024;2023-05-10T05:23:00;100631.63;;;14.22;100.00
58534;BME280;44109;52.398;7.024;2023-05-10T05:25:28;100619.69;;;14.18;100.00
58534;BME280;44109;52.398;7.024;2023-05-10T05:27:56;100625.25;;;14.25;100.00
58534;BME280;44109;52.398;7.024;2023-05-10T05:30:23;100616.88;;;14.25;100.00
58534;BME280;44109;52.398;7.024;2023-05-10T05:32:51;100630.03;;;14.32;100.00
58534;BME280;44109;52.398;7.024;2023-05-10T05:35:20;100635.63;;;14.50;100.00
58534;BME280;44109;52.398;7.024;2023-05-10T05:37:47;100629.63;;;14.58;100.00
58534;BME280;44109;52.398;7.024;2023-05-10T05:40:15;100629.22;;;14.53;100.00
58534;BME280;44109;52.398;7.024;2023-05-10T05:42:43;100637.19;;;14.43;100.00
58534;BME280;44109;52.398;7.024;2023-05-10T05:45:10;100639.59;;;14.52;100.00
58534;BME280;44109;52.398;7.024;2023-05-10T05:47:39;100642.81;;;14.54;100.00
58534;BME280;44109;52.398;7.024;2023-05-10T05:50:08;100640.75;;;14.44;100.00
58534;BME280;44109;52.398;7.024;2023-05-10T05:52:38;100641.19;;;14.46;100.00
58534;BME280;44109;52.398;7.024;2023-05-10T05:55:06;100647.97;;;14.49;100.00
58534;BME280;44109;52.398;7.024;2023-05-10T05:57:34;100647.16;;;14.44;100.00
58534;BME280;44109;52.398;7.024;2023-05-10T06:00:02;100640.75;;;14.44;100.00
58534;BME280;44109;52.398;7.024;2023-05-10T06:02:31;100646.78;;;14.35;100.00
58534;BME280;44109;52.398;7.024;2023-05-10T06:04:58;100644.75;;;14.43;100.00
58534;BME280;44109;52.398;7.024;2023-05-10T06:07:26;100653.56;;;14.49;100.00
58534;BME280;44109;52.398;7.024;2023-05-10T06:09:55;100655.94;;;14.57;100.00
58534;BME280;44109;52.398;7.024;2023-05-10T06:12:22;100657.94;;;14.53;100.00
58534;BME280;44109;52.398;7.024;2023-05-10T06:14:50;100653.16;;;14.61;100.00
58534;BME280;44109;52.398;7.024;2023-05-10T06:17:18;100658.31;;;14.69;100.00
58534;BME280;44109;52.398;7.024;2023-05-10T06:19:45;100651.16;;;14.58;100.00
58534;BME280;44109;52.398;7.024;2023-05-10T06:22:13;100649.94;;;14.66;100.00
58534;BME280;44109;52.398;7.024;2023-05-10T06:24:40;100653.94;;;14.72;100.00
58534;BME280;44109;52.398;7.024;2023-05-10T06:27:10;100651.97;;;14.58;100.00
58534;BME280;44109;52.398;7.024;2023-05-10T06:29:38;100656.34;;;14.52;100.00
58534;BME280;44109;52.398;7.024;2023-05-10T06:32:06;100645.19;;;14.56;100.00
58534;BME280;44109;52.398;7.024;2023-05-10T06:34:34;100656.34;;;14.63;100.00
58534;BME280;44109;52.398;7.024;2023-05-10T06:37:01;100666.72;;;14.44;100.00
58534;BME280;44109;52.398;7.024;2023-05-10T06:39:29;100667.50;;;14.31;100.00
58534;BME280;44109;52.398;7.024;2023-05-10T06:41:57;100670.31;;;14.52;100.00
58534;BME280;44109;52.398;7.024;2023-05-10T06:44:26;100671.50;;;14.55;100.00
58534;BME280;44109;52.398;7.024;2023-05-10T06:46:54;100685.06;;;14.53;100.00
58534;BME280;44109;52.398;7.024;2023-05-10T06:49:21;100673.47;;;14.58;100.00
58534;BME280;44109;52.398;7.024;2023-05-10T06:51:49;100683.06;;;14.57;100.00
58534;BME280;44109;52.398;7.024;2023-05-10T06:54:17;100685.03;;;14.70;100.00
58534;BME280;44109;52.398;7.024;2023-05-10T06:56:45;100683.06;;;14.57;100.00
58534;BME280;44109;52.398;7.024;2023-05-10T06:59:13;100686.25;;;14.66;100.00
58534;BME280;44109;52.398;7.024;2023-05-10T07:01:42;100672.69;;;14.61;100.00
58534;BME280;44109;52.398;7.024;2023-05-10T07:04:10;100689.03;;;14.73;100.00
58534;BME280;44109;52.398;7.024;2023-05-10T07:06:37;100695.00;;;14.71;100.00
58534;BME280;44109;52.398;7.024;2023-05-10T07:09:05;100701.78;;;14.81;100.00
58534;BME280;44109;52.398;7.024;2023-05-10T07:11:33;100707.38;;;14.81;100.00
58534;BME280;44109;52.398;7.024;2023-05-10T07:14:01;100706.16;;;14.89;100.00
58534;BME280;44109;52.398;7.024;2023-05-10T07:16:28;100706.16;;;14.89;100.00
58534;BME280;44109;52.398;7.024;2023-05-10T07:18:57;100703.78;;;14.77;100.00
58534;BME280;44109;52.398;7.024;2023-05-10T07:21:25;100696.59;;;14.83;100.00
58534;BME280;44109;52.398;7.024;2023-05-10T07:23:54;100699.34;;;14.97;100.00
58534;BME280;44109;52.398;7.024;2023-05-10T07:26:22;100702.56;;;15.00;100.00
58534;BME280;44109;52.398;7.024;2023-05-10T07:28:50;100707.34;;;14.88;100.00
58534;BME280;44109;52.398;7.024;2023-05-10T07:31:17;100700.97;;;14.88;100.00
58534;BME280;44109;52.398;7.024;2023-05-10T07:33:45;100706.19;;;14.82;100.00
58534;BME280;44109;52.398;7.024;2023-05-10T07:36:14;100711.34;;;14.87;100.00
58534;BME280;44109;52.398;7.024;2023-05-10T07:38:42;100720.13;;;14.82;100.00
58534;BME280;44109;52.398;7.024;2023-05-10T07:41:11;100708.56;;;14.80;100.00
58534;BME280;44109;52.398;7.024;2023-05-10T07:43:39;100716.97;;;14.73;100.00
58534;BME280;44109;52.398;7.024;2023-05-10T07:46:07;100710.97;;;14.82;100.00
58534;BME280;44109;52.398;7.024;2023-05-10T07:48:36;100718.53;;;14.95;100.00
58534;BME280;44109;52.398;7.024;2023-05-10T07:51:04;100719.31;;;14.96;100.00
58534;BME280;44109;52.398;7.024;2023-05-10T07:53:33;100721.34;;;14.74;100.00
58534;BME280;44109;52.398;7.024;2023-05-10T07:56:20;100731.34;;;14.54;100.00
58534;BME280;44109;52.398;7.024;2023-05-10T07:58:49;100733.69;;;14.80;100.00
58534;BME280;44109;52.398;7.024;2023-05-10T08:01:17;100736.09;;;14.64;100.00
58534;BME280;44109;52.398;7.024;2023-05-10T08:03:45;100733.72;;;14.59;100.00
58534;BME280;44109;52.398;7.024;2023-05-10T08:06:13;100743.69;;;14.81;100.00
58534;BME280;44109;52.398;7.024;2023-05-10T08:08:43;100744.03;;;14.94;100.00
58534;BME280;44109;52.398;7.024;2023-05-10T08:11:11;100747.25;;;14.78;100.00
58534;BME280;44109;52.398;7.024;2023-05-10T08:13:39;100761.63;;;14.69;100.00
58534;BME280;44109;52.398;7.024;2023-05-10T08:16:06;100761.63;;;14.66;100.00
58534;BME280;44109;52.398;7.024;2023-05-10T08:18:34;100754.47;;;14.54;100.00
58534;BME280;44109;52.398;7.024;2023-05-10T08:21:02;100764.44;;;14.59;100.00
58534;BME280;44109;52.398;7.024;2023-05-10T08:23:29;100731.34;;;14.54;100.00
58534;BME280;44109;52.398;7.024;2023-05-10T08:25:58;100775.97;;;14.61;100.00
58534;BME280;44109;52.398;7.024;2023-05-10T08:28:26;100772.00;;;14.83;100.00
58534;BME280;44109;52.398;7.024;2023-05-10T08:30:55;100768.00;;;14.95;100.00
58534;BME280;44109;52.398;7.024;2023-05-10T08:33:23;100768.81;;;14.95;100.00
58534;BME280;44109;52.398;7.024;2023-05-10T08:35:51;100768.78;;;15.03;100.00
58534;BME280;44109;52.398;7.024;2023-05-10T08:38:18;100765.56;;;15.08;100.00
58534;BME280;44109;52.398;7.024;2023-05-10T08:40:49;100774.28;;;15.38;100.00
58534;BME280;44109;52.398;7.024;2023-05-10T08:43:26;100771.81;;;15.62;100.00
58534;BME280;44109;52.398;7.024;2023-05-10T08:45:55;100769.50;;;15.50;100.00
58534;BME280;44109;52.398;7.024;2023-05-10T08:48:23;100765.13;;;15.41;100.00
58534;BME280;44109;52.398;7.024;2023-05-10T08:50:53;100770.28;;;15.46;100.00
58534;BME280;44109;52.398;7.024;2023-05-10T08:53:24;100776.75;;;15.22;100.00
58534;BME280;44109;52.398;7.024;2023-05-10T08:55:56;100780.63;;;15.57;100.00
58534;BME280;44109;52.398;7.024;2023-05-10T08:58:25;100787.03;;;15.64;100.00
58534;BME280;44109;52.398;7.024;2023-05-10T09:00:53;100787.34;;;15.84;100.00
58534;BME280;44109;52.398;7.024;2023-05-10T09:03:21;100787.03;;;15.68;100.00
58534;BME280;44109;52.398;7.024;2023-05-10T09:05:49;100790.47;;;16.01;100.00
58534;BME280;44109;52.398;7.024;2023-05-10T09:08:17;100782.53;;;15.88;100.00
58534;BME280;44109;52.398;7.024;2023-05-10T09:10:46;100788.72;;;16.32;100.00
58534;BME280;44109;52.398;7.024;2023-05-10T09:13:17;100782.34;;;16.24;100.00
58534;BME280;44109;52.398;7.024;2023-05-10T09:15:49;100785.03;;;16.42;100.00
58534;BME280;44109;52.398;7.024;2023-05-10T09:18:18;100786.56;;;16.54;100.00
58534;BME280;44109;52.398;7.024;2023-05-10T09:20:46;100788.16;;;16.55;100.00
58534;BME280;44109;52.398;7.024;2023-05-10T09:23:14;100797.00;;;16.49;100.00
58534;BME280;44109;52.398;7.024;2023-05-10T09:25:42;100787.91;;;16.87;100.00
58534;BME280;44109;52.398;7.024;2023-05-10T09:28:09;100793.09;;;16.88;100.00
58534;BME280;44109;52.398;7.024;2023-05-10T09:30:38;100800.19;;;17.04;100.00
58534;BME280;44109;52.398;7.024;2023-05-10T09:33:07;100806.22;;;16.98;100.00
58534;BME280;44109;52.398;7.024;2023-05-10T09:35:35;100808.03;;;17.19;100.00
58534;BME280;44109;52.398;7.024;2023-05-10T09:38:06;100801.22;;;17.20;100.00
58534;BME280;44109;52.398;7.024;2023-05-10T09:40:34;100812.72;;;17.33;100.00
58534;BME280;44109;52.398;7.024;2023-05-10T09:43:03;100813.88;;;17.77;100.00
58534;BME280;44109;52.398;7.024;2023-05-10T09:45:36;100817.78;;;17.83;100.00
58534;BME280;44109;52.398;7.024;2023-05-10T09:48:04;100815.28;;;17.92;100.00
58534;BME280;44109;52.398;7.024;2023-05-10T09:50:34;100817.94;;;18.03;100.00
58534;BME280;44109;52.398;7.024;2023-05-10T09:53:02;100818.44;;;18.25;100.00
58534;BME280;44109;52.398;7.024;2023-05-10T09:55:39;100816.94;;;18.47;100.00
58534;BME280;44109;52.398;7.024;2023-05-10T09:58:07;100812.63;;;18.39;100.00
58534;BME280;44109;52.398;7.024;2023-05-10T10:00:37;100815.59;;;17.98;100.00
58534;BME280;44109;52.398;7.024;2023-05-10T10:03:07;100813.00;;;18.41;100.00
58534;BME280;44109;52.398;7.024;2023-05-10T10:05:42;100825.81;;;18.73;100.00
58534;BME280;44109;52.398;7.024;2023-05-10T10:08:11;100829.72;;;18.79;100.00
58534;BME280;44109;52.398;7.024;2023-05-10T10:10:40;100817.88;;;18.64;100.00
58534;BME280;44109;52.398;7.024;2023-05-10T10:13:10;100825.31;;;18.51;100.00
58534;BME280;44109;52.398;7.024;2023-05-10T10:15:38;100825.63;;;18.57;100.00
58534;BME280;44109;52.398;7.024;2023-05-10T10:18:06;100826.41;;;18.30;100.00
58534;BME280;44109;52.398;7.024;2023-05-10T10:20:39;100842.25;;;18.17;100.00
58534;BME280;44109;52.398;7.024;2023-05-10T10:23:09;100833.94;;;18.06;100.00
58534;BME280;44109;52.398;7.024;2023-05-10T10:25:37;100839.59;;;18.03;100.00
58534;BME280;44109;52.398;7.024;2023-05-10T10:28:14;100840.75;;;17.71;100.00
58534;BME280;44109;52.398;7.024;2023-05-10T10:30:51;100845.38;;;17.50;100.00
58534;BME280;44109;52.398;7.024;2023-05-10T10:33:40;100847.06;;;17.82;100.00
58534;BME280;44109;52.398;7.024;2023-05-10T10:36:32;100848.41;;;18.05;100.00
58534;BME280;44109;52.398;7.024;2023-05-10T10:39:09;100851.06;;;18.15;100.00
58534;BME280;44109;52.398;7.024;2023-05-10T10:41:39;100850.16;;;18.52;100.00
58534;BME280;44109;52.398;7.024;2023-05-10T10:44:37;100839.72;;;17.95;100.00
58534;BME280;44109;52.398;7.024;2023-05-10T10:47:27;100845.13;;;18.40;100.00
58534;BME280;44109;52.398;7.024;2023-05-10T10:50:06;100841.38;;;17.89;100.00
58534;BME280;44109;52.398;7.024;2023-05-10T10:52:35;100854.44;;;17.65;100.00
58534;BME280;44109;52.398;7.024;2023-05-10T10:55:08;100854.84;;;17.26;100.00
58534;BME280;44109;52.398;7.024;2023-05-10T10:57:43;100844.94;;;18.24;100.00
58534;BME280;44109;52.398;7.024;2023-05-10T11:00:26;100843.22;;;18.61;100.00
58534;BME280;44109;52.398;7.024;2023-05-10T11:02:58;100851.00;;;17.88;100.00
58534;BME280;44109;52.398;7.024;2023-05-10T11:05:36;100849.78;;;17.89;100.00
58534;BME280;44109;52.398;7.024;2023-05-10T11:08:17;100856.50;;;17.61;100.00
58534;BME280;44109;52.398;7.024;2023-05-10T11:11:03;100855.84;;;17.84;100.00
58534;BME280;44109;52.398;7.024;2023-05-10T11:13:37;100862.66;;;17.49;100.00
58534;BME280;44109;52.398;7.024;2023-05-10T11:16:11;100866.94;;;17.57;100.00
58534;BME280;44109;52.398;7.024;2023-05-10T11:18:52;100857.50;;;17.40;100.00
58534;BME280;44109;52.398;7.024;2023-05-10T11:21:28;100871.22;;;17.31;100.00
58534;BME280;44109;52.398;7.024;2023-05-10T11:23:58;100866.84;;;16.78;100.00
58534;BME280;44109;52.398;7.024;2023-05-10T11:26:32;100868.72;;;16.95;100.00
58534;BME280;44109;52.398;7.024;2023-05-10T11:29:01;100876.44;;;17.29;100.00
58534;BME280;44109;52.398;7.024;2023-05-10T11:31:30;100876.56;;;17.15;100.00
58534;BME280;44109;52.398;7.024;2023-05-10T11:33:59;100875.59;;;17.36;100.00
58534;BME280;44109;52.398;7.024;2023-05-10T11:36:29;100875.63;;;17.29;100.00
58534;BME280;44109;52.398;7.024;2023-05-10T11:39:00;100880.66;;;17.03;100.00
58534;BME280;44109;52.398;7.024;2023-05-10T11:41:31;100880.47;;;17.28;100.00
58534;BME280;44109;52.398;7.024;2023-05-10T11:43:59;100879.44;;;18.24;100.00
58534;BME280;44109;52.398;7.024;2023-05-10T11:46:27;100882.88;;;18.66;100.00
58534;BME280;44109;52.398;7.024;2023-05-10T11:48:58;100884.06;;;17.73;100.00
58534;BME280;44109;52.398;7.024;2023-05-10T11:51:33;100894.84;;;18.13;100.00
58534;BME280;44109;52.398;7.024;2023-05-10T11:54:06;100884.03;;;18.42;100.00
58534;BME280;44109;52.398;7.024;2023-05-10T11:56:37;100889.97;;;18.78;100.00
58534;BME280;44109;52.398;7.024;2023-05-10T11:59:05;100892.06;;;18.97;100.00
58534;BME280;44109;52.398;7.024;2023-05-10T12:01:33;100897.97;;;19.30;100.00
58534;BME280;44109;52.398;7.024;2023-05-10T12:04:01;100895.84;;;19.14;100.00
58534;BME280;44109;52.398;7.024;2023-05-10T12:06:31;100899.88;;;18.86;100.00
58534;BME280;44109;52.398;7.024;2023-05-10T12:09:05;100908.75;;;19.35;100.00
58534;BME280;44109;52.398;7.024;2023-05-10T12:11:39;100900.31;;;18.54;100.00
58534;BME280;44109;52.398;7.024;2023-05-10T12:14:08;100907.28;;;18.42;100.00
58534;BME280;44109;52.398;7.024;2023-05-10T12:16:36;100907.66;;;18.14;100.00
58534;BME280;44109;52.398;7.024;2023-05-10T12:19:04;100914.25;;;18.92;100.00
58534;BME280;44109;52.398;7.024;2023-05-10T12:21:32;100917.31;;;18.74;100.00
58534;BME280;44109;52.398;7.024;2023-05-10T12:24:02;100912.06;;;18.15;100.00
58534;BME280;44109;52.398;7.024;2023-05-10T12:26:32;100915.28;;;18.44;100.00
58534;BME280;44109;52.398;7.024;2023-05-10T12:29:14;100919.50;;;19.17;100.00
58534;BME280;44109;52.398;7.024;2023-05-10T12:31:50;100923.03;;;19.21;100.00
58534;BME280;44109;52.398;7.024;2023-05-10T12:34:25;100921.97;;;17.89;100.00
58534;BME280;44109;52.398;7.024;2023-05-10T12:36:54;100923.22;;;17.84;100.00
58534;BME280;44109;52.398;7.024;2023-05-10T12:39:23;100916.94;;;17.66;100.00
58534;BME280;44109;52.398;7.024;2023-05-10T12:41:50;100916.94;;;17.69;100.00
58534;BME280;44109;52.398;7.024;2023-05-10T12:44:19;100921.41;;;18.05;100.00
58534;BME280;44109;52.398;7.024;2023-05-10T12:46:47;100925.66;;;18.81;100.00
58534;BME280;44109;52.398;7.024;2023-05-10T12:49:15;100910.94;;;19.47;100.00
58534;BME280;44109;52.398;7.024;2023-05-10T12:51:44;100925.00;;;19.94;100.00
58534;BME280;44109;52.398;7.024;2023-05-10T12:54:15;100911.53;;;18.85;98.60
58534;BME280;44109;52.398;7.024;2023-05-10T12:56:43;100926.44;;;18.51;100.00